Time;durP1;ratioP1;P1;durP2;ratioP2;P2;SDS_P1;SDS_P2;PMS_P1;PMS_P2;Temp;Humidity;BMP_temperature;BMP_pressure;BME280_temperature;BME280_humidity;BME280_pressure;Samples;Min_cycle;Max_cycle;Signal;HPM_P1;HPM_P2
2021/03/04 00:02:24;;;;;;;46.20;23.22;;;;;;;6.63;65.84;100864.20;1695249;84;21129;-74
2021/03/04 00:04:50;;;;;;;44.20;23.85;;;;;;;6.64;65.82;100863.25;1695521;84;22147;-73
2021/03/04 00:07:16;;;;;;;43.63;23.87;;;;;;;6.67;65.80;100857.67;1695172;84;21213;-74
2021/03/04 00:09:43;;;;;;;46.77;26.48;;;;;;;6.64;65.78;100861.92;1695460;84;21132;-74
2021/03/04 00:12:10;;;;;;;43.78;23.83;;;;;;;6.62;65.78;100862.04;1695065;84;21180;-73
2021/03/04 00:14:36;;;;;;;40.98;20.95;;;;;;;6.61;65.77;100856.41;1695198;84;21164;-73
2021/03/04 00:17:02;;;;;;;41.37;20.45;;;;;;;6.63;65.75;100864.20;1695432;84;21273;-73
2021/03/04 00:19:28;;;;;;;42.78;22.25;;;;;;;6.63;65.76;100858.91;1695450;84;21146;-73
2021/03/04 00:21:55;;;;;;;42.80;22.70;;;;;;;6.63;65.79;100853.61;1695503;84;21181;-73
2021/03/04 00:24:21;;;;;;;39.33;22.40;;;;;;;6.62;65.80;100855.41;1695040;84;21169;-73
2021/03/04 00:26:47;;;;;;;39.08;22.70;;;;;;;6.60;65.80;100852.08;1695528;84;21148;-73
2021/03/04 00:29:14;;;;;;;42.45;23.67;;;;;;;6.57;65.83;100851.50;1695421;84;22083;-73
2021/03/04 00:31:40;;;;;;;39.20;22.07;;;;;;;6.52;65.83;100846.59;1695397;84;21153;-73
2021/03/04 00:34:07;;;;;;;42.13;23.12;;;;;;;6.47;65.84;100840.36;1695442;84;21148;-74
2021/03/04 00:36:33;;;;;;;48.40;22.75;;;;;;;6.46;65.87;100842.67;1695345;84;21132;-73
2021/03/04 00:38:59;;;;;;;45.83;23.02;;;;;;;6.43;65.85;100835.00;1695486;84;21196;-73
2021/03/04 00:41:25;;;;;;;44.70;24.27;;;;;;;6.42;65.88;100836.44;1695266;84;21217;-73
2021/03/04 00:43:53;;;;;;;45.52;22.30;;;;;;;6.41;65.88;100837.41;1695425;84;21602;-73
2021/03/04 00:46:19;;;;;;;42.40;23.92;;;;;;;6.40;65.90;100832.59;1695327;84;21176;-74
2021/03/04 00:48:45;;;;;;;45.67;25.97;;;;;;;6.37;65.91;100838.16;1695455;84;21187;-73
2021/03/04 00:51:11;;;;;;;39.08;23.83;;;;;;;6.31;65.94;100828.09;1695354;84;21140;-73
2021/03/04 00:53:38;;;;;;;44.40;23.52;;;;;;;6.27;65.98;100822.70;1695394;84;21206;-73
2021/03/04 00:56:04;;;;;;;42.55;22.35;;;;;;;6.25;65.99;100824.66;1695304;83;21216;-73
2021/03/04 00:58:31;;;;;;;43.05;21.23;;;;;;;6.24;66.01;100819.48;1695152;84;21148;-73
2021/03/04 01:00:57;;;;;;;42.70;21.75;;;;;;;6.25;66.04;100822.48;1690350;84;21550;-73
2021/03/04 01:03:23;;;;;;;40.58;21.15;;;;;;;6.22;66.08;100818.30;1689053;83;21149;-73
2021/03/04 01:05:50;;;;;;;36.45;20.30;;;;;;;6.23;66.13;100827.06;1689330;85;22038;-73
2021/03/04 01:08:16;;;;;;;37.93;21.93;;;;;;;6.18;66.18;100819.53;1689023;84;21176;-74
2021/03/04 01:10:43;;;;;;;45.63;21.30;;;;;;;6.18;66.24;100816.89;1674949;85;21181;-73
2021/03/04 01:13:09;;;;;;;43.70;22.37;;;;;;;6.16;66.30;100817.48;1689313;85;21176;-73
2021/03/04 01:15:36;;;;;;;42.73;21.75;;;;;;;6.11;66.31;100813.09;1688907;85;21137;-73
2021/03/04 01:18:04;;;;;;;43.13;22.60;;;;;;;6.09;66.37;100808.39;1689118;85;21263;-73
2021/03/04 01:20:31;;;;;;;47.43;21.80;;;;;;;6.07;66.41;100808.17;1689029;83;21607;-73
2021/03/04 01:22:57;;;;;;;49.95;24.25;;;;;;;6.03;66.45;100807.59;1689136;85;21169;-73
2021/03/04 01:25:23;;;;;;;43.40;23.47;;;;;;;5.97;66.49;100799.70;1689019;84;21117;-73
2021/03/04 01:27:52;;;;;;;51.08;23.05;;;;;;;5.93;66.54;100804.06;1689279;84;21638;-73
2021/03/04 01:30:26;;;;;;;43.25;21.65;;;;;;;5.88;66.57;100799.15;1689250;84;22104;-73
2021/03/04 01:33:04;;;;;;;42.27;23.30;;;;;;;5.89;66.65;100792.05;1800390;77;28483;-73
2021/03/04 01:35:31;;;;;;;40.83;20.88;;;;;;;5.88;66.69;100793.02;1788392;80;21028;-73
2021/03/04 01:37:57;;;;;;;34.92;20.12;;;;;;;5.85;66.77;100794.56;1788337;80;21198;-73
2021/03/04 01:40:23;;;;;;;38.88;21.30;;;;;;;5.80;66.85;100780.91;1788209;80;21028;-73
2021/03/04 01:42:50;;;;;;;46.08;21.90;;;;;;;5.76;66.96;100777.67;1788307;80;21008;-73
2021/03/04 01:45:17;;;;;;;39.48;21.02;;;;;;;5.74;67.03;100772.14;1788375;80;21537;-73
2021/03/04 01:47:47;;;;;;;44.15;22.50;;;;;;;5.70;67.13;100777.36;1788184;80;21139;-73
2021/03/04 01:50:14;;;;;;;52.58;24.47;;;;;;;5.67;67.19;100767.01;1788468;80;21151;-73
2021/03/04 01:52:40;;;;;;;44.33;22.27;;;;;;;5.62;67.26;100758.16;1788208;80;21128;-73
2021/03/04 01:55:07;;;;;;;45.65;24.37;;;;;;;5.57;67.33;100759.50;1788243;80;21241;-73
2021/03/04 01:57:33;;;;;;;52.75;23.22;;;;;;;5.52;67.40;100762.03;1788389;80;21583;-73
2021/03/04 02:00:00;;;;;;;46.48;24.57;;;;;;;5.48;67.46;100764.61;1787961;80;21116;-73
2021/03/04 02:02:26;;;;;;;45.05;23.85;;;;;;;5.45;67.52;100765.35;1788194;80;21240;-73
2021/03/04 02:04:53;;;;;;;40.58;20.70;;;;;;;5.41;67.58;100759.48;1788140;80;21119;-73
2021/03/04 02:07:50;;;;;;;43.55;21.80;;;;;;;5.39;67.64;100762.72;1788245;80;21118;-73
2021/03/04 02:10:42;;;;;;;45.08;21.90;;;;;;;5.37;67.70;100751.44;1787940;80;21144;-74
2021/03/04 02:13:25;;;;;;;42.48;19.92;;;;;;;5.32;67.81;100753.62;1786975;80;21111;-74
2021/03/04 02:16:05;;;;;;;43.63;22.32;;;;;;;5.26;67.91;100754.14;1763273;80;21167;-73
2021/03/04 02:18:39;;;;;;;46.15;22.98;;;;;;;5.20;68.00;100748.52;1730783;81;21549;-73
2021/03/04 02:21:17;;;;;;;47.78;25.02;;;;;;;5.16;68.09;100752.37;1756857;81;21572;-73
2021/03/04 02:24:17;;;;;;;47.80;25.90;;;;;;;5.12;68.19;100743.86;1757135;81;21607;-73
2021/03/04 02:26:59;;;;;;;;;;;;;;;5.06;68.26;100752.30;1759747;81;21604;-73
2021/03/04 02:29:25;;;;;;;54.40;26.12;;;;;;;5.01;68.39;100741.26;1756864;81;21106;-73
2021/03/04 02:31:54;;;;;;;45.33;25.43;;;;;;;4.97;68.51;100735.86;1759167;81;21147;-73
2021/03/04 02:34:21;;;;;;;49.53;22.98;;;;;;;4.94;68.61;100738.77;1762503;81;21123;-73
2021/03/04 02:36:48;;;;;;;46.73;23.25;;;;;;;4.88;68.68;100731.34;1762546;81;21128;-73
2021/03/04 02:39:14;;;;;;;43.80;22.50;;;;;;;4.86;68.82;100729.30;1762415;81;21118;-73
2021/03/04 02:41:41;;;;;;;52.20;22.62;;;;;;;4.85;68.89;100735.56;1734548;81;22060;-73
2021/03/04 02:44:08;;;;;;;51.58;25.72;;;;;;;4.83;68.98;100729.55;1762065;81;21131;-73
2021/03/04 02:46:36;;;;;;;45.75;23.95;;;;;;;4.83;69.08;100730.87;1762001;81;21579;-73
2021/03/04 02:49:03;;;;;;;47.60;24.95;;;;;;;4.80;69.19;100729.80;1734268;81;21631;-73
2021/03/04 02:51:29;;;;;;;49.45;24.52;;;;;;;4.78;69.29;100731.74;1761924;81;21604;-73
2021/03/04 02:53:56;;;;;;;52.27;26.02;;;;;;;4.77;69.40;100730.05;1762023;81;21192;-73
2021/03/04 02:56:23;;;;;;;53.60;28.57;;;;;;;4.75;69.49;100733.31;1761939;81;21124;-73
2021/03/04 02:58:55;;;;;;;54.77;25.68;;;;;;;4.72;69.59;100733.06;1762026;81;21156;-73
2021/03/04 03:01:21;;;;;;;49.23;26.33;;;;;;;4.69;69.70;100725.39;1761912;81;21580;-73
2021/03/04 03:03:49;;;;;;;49.90;27.15;;;;;;;4.66;69.82;100725.64;1762062;81;21106;-73
2021/03/04 03:06:17;;;;;;;51.77;25.75;;;;;;;4.66;69.91;100728.77;1762225;81;22027;-73
2021/03/04 03:08:47;;;;;;;59.20;28.38;;;;;;;4.64;70.02;100729.38;1761819;81;21154;-73
2021/03/04 03:11:17;;;;;;;50.95;26.12;;;;;;;4.62;70.13;100726.00;1762029;81;21179;-73
2021/03/04 03:13:49;;;;;;;55.52;27.87;;;;;;;4.60;70.22;100722.66;1761920;81;21151;-73
2021/03/04 03:16:16;;;;;;;53.68;26.52;;;;;;;4.52;70.34;100721.48;1761907;80;21135;-73
2021/03/04 03:18:43;;;;;;;53.65;27.10;;;;;;;4.46;70.45;100723.30;1761991;81;21248;-73
2021/03/04 03:21:09;;;;;;;54.70;25.90;;;;;;;4.41;70.51;100724.13;1761808;81;21592;-73
2021/03/04 03:23:35;;;;;;;48.58;25.25;;;;;;;4.38;70.58;100724.38;1762102;81;21159;-73
2021/03/04 03:26:02;;;;;;;49.77;24.25;;;;;;;4.35;70.66;100721.99;1761678;81;21139;-73
2021/03/04 03:28:29;;;;;;;41.95;22.95;;;;;;;4.29;70.74;100721.14;1762076;81;21178;-73
2021/03/04 03:30:55;;;;;;;56.33;27.15;;;;;;;4.27;70.86;100727.03;1761656;81;21608;-73
2021/03/04 03:33:22;;;;;;;53.20;27.55;;;;;;;4.26;70.94;100725.34;1757091;81;21151;-73
2021/03/04 03:35:48;;;;;;;51.13;29.40;;;;;;;4.25;71.03;100719.73;1756318;81;21127;-73
2021/03/04 03:38:14;;;;;;;60.83;31.10;;;;;;;4.22;71.16;100706.75;1756288;81;21143;-73
2021/03/04 03:40:44;;;;;;;59.77;30.85;;;;;;;4.20;71.26;100710.00;1756380;81;21104;-73
2021/03/04 03:43:11;;;;;;;55.00;29.55;;;;;;;4.19;71.36;100711.43;1756390;81;21194;-73
2021/03/04 03:45:46;;;;;;;62.65;30.60;;;;;;;4.15;71.43;100714.80;1756388;81;21143;-73
2021/03/04 03:48:14;;;;;;;60.95;30.30;;;;;;;4.11;71.54;100712.06;1756038;81;21599;-73
2021/03/04 03:50:42;;;;;;;56.15;30.25;;;;;;;4.13;71.61;100719.36;1756301;81;21521;-73
2021/03/04 03:53:12;;;;;;;56.80;28.42;;;;;;;4.13;71.72;100708.81;1756142;81;22038;-73
2021/03/04 03:55:39;;;;;;;55.52;28.32;;;;;;;4.15;71.80;100709.52;1756516;81;21257;-73
2021/03/04 03:58:05;;;;;;;52.78;27.55;;;;;;;4.16;71.90;100707.72;1726845;81;21111;-73
2021/03/04 04:00:31;;;;;;;60.78;32.30;;;;;;;4.16;72.02;100712.52;1756209;81;21125;-73
2021/03/04 04:03:02;;;;;;;64.95;38.70;;;;;;;4.15;72.11;100713.98;1756312;81;21135;-73
2021/03/04 04:05:28;;;;;;;;;;;;;;;4.15;72.24;100716.11;1758928;81;21103;-73
2021/03/04 04:07:55;;;;;;;96.85;50.15;;;;;;;4.15;72.35;100707.38;1756199;81;21373;-73
2021/03/04 04:10:24;;;;;;;78.97;45.35;;;;;;;4.10;72.44;100702.45;1756212;81;21119;-73
2021/03/04 04:12:51;;;;;;;78.07;43.20;;;;;;;4.08;72.54;100704.39;1755890;81;21556;-73
2021/03/04 04:15:19;;;;;;;72.25;36.48;;;;;;;4.05;72.65;100700.65;1756409;80;21143;-73
2021/03/04 04:17:46;;;;;;;63.87;32.28;;;;;;;4.02;72.70;100700.89;1756100;81;21124;-73
2021/03/04 04:20:13;;;;;;;61.60;32.13;;;;;;;4.02;72.79;100703.53;1756304;81;21211;-73
2021/03/04 04:22:41;;;;;;;62.80;29.27;;;;;;;4.02;72.88;100703.53;1755973;81;21123;-73
2021/03/04 04:25:08;;;;;;;60.00;33.00;;;;;;;4.00;72.95;100705.47;1756375;81;21091;-73
2021/03/04 04:27:35;;;;;;;66.55;34.53;;;;;;;3.97;73.04;100697.80;1756287;81;21135;-73
2021/03/04 04:30:02;;;;;;;63.52;33.25;;;;;;;3.97;73.13;100695.16;1756404;81;21132;-73
2021/03/04 04:32:28;;;;;;;70.55;33.98;;;;;;;3.96;73.22;100698.75;1756392;81;21200;-73
2021/03/04 04:34:54;;;;;;;64.20;32.85;;;;;;;3.94;73.32;100697.53;1755948;81;21363;-73
2021/03/04 04:37:20;;;;;;;83.70;44.30;;;;;;;3.93;73.36;100710.86;1756312;81;21151;-73
2021/03/04 04:39:47;;;;;;;75.92;40.73;;;;;;;3.92;73.45;100703.90;1756037;81;21083;-73
2021/03/04 04:42:13;;;;;;;78.83;43.28;;;;;;;3.91;73.52;100698.25;1756460;81;21103;-73
2021/03/04 04:44:39;;;;;;;70.10;36.05;;;;;;;3.90;73.61;100691.32;1756309;81;22086;-73
2021/03/04 04:47:06;;;;;;;63.20;30.35;;;;;;;3.89;73.68;100679.92;1756226;81;21119;-73
2021/03/04 04:49:32;;;;;;;62.80;30.27;;;;;;;3.88;73.75;100690.11;1756286;81;21120;-73
2021/03/04 04:51:58;;;;;;;65.25;30.75;;;;;;;3.85;73.83;100678.95;1756101;81;21182;-73
2021/03/04 04:54:24;;;;;;;62.40;31.48;;;;;;;3.83;73.91;100672.98;1756540;81;21107;-73
2021/03/04 04:56:51;;;;;;;63.15;32.05;;;;;;;3.79;74.03;100675.48;1756233;81;21195;-73
2021/03/04 04:59:17;;;;;;;67.12;34.65;;;;;;;3.77;74.11;100680.03;1756104;81;21203;-73
2021/03/04 05:01:43;;;;;;;65.03;32.70;;;;;;;3.73;74.18;100674.66;1756166;81;21114;-73
2021/03/04 05:04:09;;;;;;;66.10;35.10;;;;;;;3.71;74.26;100671.28;1756408;81;21611;-73
2021/03/04 05:06:36;;;;;;;65.50;33.80;;;;;;;3.69;74.34;100675.38;1756226;81;21107;-73
2021/03/04 05:09:02;;;;;;;66.45;33.98;;;;;;;3.71;74.39;100667.33;1756209;81;21169;-73
2021/03/04 05:11:28;;;;;;;67.03;34.03;;;;;;;3.72;74.45;100666.38;1756414;81;21187;-73
2021/03/04 05:13:55;;;;;;;70.62;36.20;;;;;;;3.73;74.54;100664.11;1756039;81;21572;-73
2021/03/04 05:16:21;;;;;;;66.75;35.40;;;;;;;3.71;74.62;100654.14;1756318;80;21139;-73
2021/03/04 05:18:47;;;;;;;68.55;34.33;;;;;;;3.72;74.68;100654.03;1756017;81;21540;-73
2021/03/04 05:21:13;;;;;;;62.33;35.90;;;;;;;3.73;74.76;100657.52;1756351;81;21186;-73
2021/03/04 05:23:40;;;;;;;65.62;33.35;;;;;;;3.71;74.83;100658.09;1756193;81;21150;-72
2021/03/04 05:26:06;;;;;;;69.60;34.80;;;;;;;3.70;74.93;100655.09;1756405;81;21147;-73
2021/03/04 05:28:32;;;;;;;77.32;38.42;;;;;;;3.69;75.00;100656.07;1756302;81;21572;-73
2021/03/04 05:30:59;;;;;;;76.55;36.50;;;;;;;3.67;75.08;100655.34;1756130;81;21123;-73
2021/03/04 05:33:25;;;;;;;69.53;35.98;;;;;;;3.65;75.13;100654.63;1756306;81;21190;-72
2021/03/04 05:35:51;;;;;;;63.63;34.48;;;;;;;3.63;75.19;100645.98;1755372;81;21623;-73
2021/03/04 05:38:18;;;;;;;63.95;31.68;;;;;;;3.62;75.22;100645.64;1756270;81;21585;-73
2021/03/04 05:40:44;;;;;;;60.05;32.35;;;;;;;3.60;75.29;100647.55;1756137;81;21134;-73
2021/03/04 05:43:11;;;;;;;65.12;32.73;;;;;;;3.61;75.35;100643.48;1756178;81;21119;-73
2021/03/04 05:45:39;;;;;;;75.05;38.83;;;;;;;3.63;75.41;100647.30;1756352;81;21185;-73
2021/03/04 05:48:07;;;;;;;74.17;41.02;;;;;;;3.64;75.48;100652.94;1756221;81;21115;-73
2021/03/04 05:50:34;;;;;;;85.47;46.40;;;;;;;3.66;75.55;100645.77;1756224;81;21155;-73
2021/03/04 05:53:10;;;;;;;80.97;42.67;;;;;;;3.66;75.61;100647.09;1726360;81;21179;-73
2021/03/04 05:55:37;;;;;;;76.20;40.45;;;;;;;3.66;75.68;100647.09;1756361;81;21096;-73
2021/03/04 05:58:04;;;;;;;79.32;38.75;;;;;;;3.65;75.73;100650.20;1756136;81;22171;-73
2021/03/04 06:00:31;;;;;;;74.60;39.30;;;;;;;3.66;75.80;100652.36;1756203;81;21112;-73
2021/03/04 06:02:57;;;;;;;85.47;41.05;;;;;;;3.68;75.82;100657.02;1756231;81;21099;-73
2021/03/04 06:05:24;;;;;;;73.72;38.95;;;;;;;3.69;75.88;100656.91;1756155;81;21545;-73
2021/03/04 06:07:50;;;;;;;83.70;41.42;;;;;;;3.70;75.94;100656.41;1756245;81;21111;-73
2021/03/04 06:10:16;;;;;;;85.85;46.80;;;;;;;3.74;75.98;100657.85;1756259;81;21290;-73
2021/03/04 06:12:43;;;;;;;84.77;44.73;;;;;;;3.77;76.04;100654.97;1756170;80;21581;-73
2021/03/04 06:15:10;;;;;;;89.42;44.08;;;;;;;3.79;76.09;100654.39;1749243;81;21238;-73
2021/03/04 06:17:37;;;;;;;79.07;46.00;;;;;;;3.82;76.12;100656.78;1752613;81;21207;-73
2021/03/04 06:20:08;;;;;;;104.50;56.42;;;;;;;3.86;76.18;100658.22;1756170;81;21568;-73
2021/03/04 06:22:39;;;;;;;101.78;60.60;;;;;;;3.90;76.22;100655.23;1756101;81;21242;-73
2021/03/04 06:25:08;;;;;;;89.67;49.45;;;;;;;3.93;76.27;100659.42;1726781;81;21147;-73
2021/03/04 06:27:38;;;;;;;101.58;47.53;;;;;;;3.98;76.31;100654.59;1756366;81;21127;-73
2021/03/04 06:30:08;;;;;;;87.40;44.63;;;;;;;4.02;76.33;100660.84;1755558;81;21151;-73
2021/03/04 06:32:35;;;;;;;;;;;;;;;4.07;76.37;100659.16;1758413;81;21149;-73
2021/03/04 06:35:13;;;;;;;108.50;52.23;;;;;;;4.13;76.39;100662.62;1756483;81;21195;-73
2021/03/04 06:37:41;;;;;;;105.10;49.88;;;;;;;4.17;76.42;100650.87;1756301;81;21147;-73
2021/03/04 06:40:22;;;;;;;109.05;51.95;;;;;;;4.23;76.47;100651.69;1753514;81;21076;-73
2021/03/04 06:42:49;;;;;;;91.53;47.78;;;;;;;4.28;76.49;100654.80;1755607;81;21171;-73
2021/03/04 06:45:28;;;;;;;95.45;48.52;;;;;;;4.34;76.53;100659.58;1756290;81;21116;-73
2021/03/04 06:48:17;;;;;;;90.60;49.93;;;;;;;4.38;76.55;100657.06;1756562;81;22050;-73
2021/03/04 06:50:58;;;;;;;87.15;48.92;;;;;;;4.42;76.57;100665.09;1756270;81;21862;-73
2021/03/04 06:53:27;;;;;;;92.97;48.28;;;;;;;4.42;76.60;100658.49;1756159;81;21159;-73
2021/03/04 06:56:06;;;;;;;113.83;59.88;;;;;;;4.45;76.64;100654.28;1756382;81;21179;-73
2021/03/04 06:58:38;;;;;;;187.95;85.72;;;;;;;4.46;76.63;100653.80;1756527;81;21580;-73
2021/03/04 07:01:14;;;;;;;182.62;81.72;;;;;;;4.47;76.65;100652.81;1756356;81;22004;-73
2021/03/04 07:03:46;;;;;;;99.32;51.60;;;;;;;4.49;76.66;100649.11;1756331;81;21115;-73
2021/03/04 07:06:21;;;;;;;103.15;51.75;;;;;;;4.53;76.65;100652.34;1756230;81;21145;-73
2021/03/04 07:08:49;;;;;;;111.88;57.00;;;;;;;4.57;76.65;100652.45;1752947;81;21237;-73
2021/03/04 07:11:19;;;;;;;132.30;65.40;;;;;;;4.61;76.65;100659.64;1754025;81;21107;-73
2021/03/04 07:13:45;;;;;;;149.02;74.82;;;;;;;4.64;76.70;100654.10;1754713;80;21198;-73
2021/03/04 07:16:21;;;;;;;120.20;62.98;;;;;;;4.66;76.71;100652.16;1756207;80;21116;-73
2021/03/04 07:18:55;;;;;;;100.47;49.38;;;;;;;4.71;76.73;100653.48;1724450;82;21171;-73
2021/03/04 07:21:23;;;;;;;89.28;50.35;;;;;;;4.75;76.77;100658.03;1722447;83;21132;-73
2021/03/04 07:23:50;;;;;;;98.40;51.50;;;;;;;4.78;76.76;100655.13;1693380;84;21148;-73
2021/03/04 07:26:17;;;;;;;96.20;53.50;;;;;;;4.81;76.77;100660.16;1686873;84;21216;-73
2021/03/04 07:28:46;;;;;;;106.75;59.30;;;;;;;4.82;76.77;100653.91;1688677;84;21192;-74
2021/03/04 07:31:13;;;;;;;143.97;73.15;;;;;;;4.86;76.78;100660.12;1679434;84;21128;-73
2021/03/04 07:33:46;;;;;;;114.20;58.23;;;;;;;4.87;76.77;100647.27;1680009;84;21212;-73
2021/03/04 07:36:13;;;;;;;112.42;56.13;;;;;;;4.91;76.76;100643.41;1685303;84;21169;-73
2021/03/04 07:38:40;;;;;;;115.25;59.55;;;;;;;4.95;76.76;100642.67;1690988;84;21243;-73
2021/03/04 07:41:12;;;;;;;115.32;59.55;;;;;;;5.00;76.77;100641.79;1689044;84;21605;-73
2021/03/04 07:43:54;;;;;;;113.35;56.65;;;;;;;5.06;76.75;100643.94;1684179;84;21172;-73
2021/03/04 07:46:44;;;;;;;115.47;59.93;;;;;;;5.08;76.77;100638.51;1710075;82;21157;-73
2021/03/04 07:49:11;;;;;;;110.68;58.42;;;;;;;5.08;76.79;100641.99;1711149;83;21120;-74
2021/03/04 07:51:46;;;;;;;117.47;61.85;;;;;;;5.10;76.83;100645.36;1713608;83;22108;-73
2021/03/04 07:54:14;;;;;;;110.78;59.30;;;;;;;5.13;76.82;100649.55;1713866;82;21148;-73
2021/03/04 07:56:40;;;;;;;116.70;58.78;;;;;;;5.11;76.80;100650.98;1709349;83;21227;-73
2021/03/04 07:59:15;;;;;;;116.35;56.35;;;;;;;5.10;76.80;100642.72;1683331;82;21715;-73
2021/03/04 08:01:42;;;;;;;106.10;54.13;;;;;;;5.13;76.81;100645.10;1687872;84;21117;-72
2021/03/04 08:04:22;;;;;;;105.67;56.95;;;;;;;5.11;76.80;100639.09;1683991;84;21252;-72
2021/03/04 08:06:49;;;;;;;114.88;61.88;;;;;;;5.14;76.81;100645.95;1692285;84;21185;-72
2021/03/04 08:09:35;;;;;;;114.88;63.02;;;;;;;5.15;76.79;100650.23;1710593;83;21216;-71
2021/03/04 08:12:13;;;;;;;118.77;63.85;;;;;;;5.17;76.79;100656.25;1680470;84;21164;-72
2021/03/04 08:14:41;;;;;;;114.75;63.25;;;;;;;5.19;76.79;100659.12;1685022;84;21603;-73
2021/03/04 08:17:08;;;;;;;115.90;63.05;;;;;;;5.20;76.77;100655.52;1713311;83;22162;-72
2021/03/04 08:19:35;;;;;;;116.10;63.68;;;;;;;5.20;76.77;100652.88;1708518;83;21184;-73
2021/03/04 08:22:07;;;;;;;119.85;58.75;;;;;;;5.24;76.77;100650.30;1685929;84;21191;-73
2021/03/04 08:24:36;;;;;;;105.17;52.43;;;;;;;5.28;76.76;100647.75;1681356;85;21617;-73
2021/03/04 08:27:05;;;;;;;101.35;52.65;;;;;;;5.27;76.73;100650.06;1683720;84;21148;-73
2021/03/04 08:29:31;;;;;;;101.35;54.03;;;;;;;5.29;76.72;100648.11;1689684;84;21223;-73
2021/03/04 08:31:58;;;;;;;94.75;53.52;;;;;;;5.28;76.70;100641.62;1699151;83;21203;-73
2021/03/04 08:34:36;;;;;;;108.40;61.37;;;;;;;5.28;76.67;100641.14;1699769;82;21190;-73
2021/03/04 08:37:03;;;;;;;125.47;69.95;;;;;;;5.27;76.62;100639.48;1696158;83;21156;-73
2021/03/04 08:39:32;;;;;;;127.58;62.75;;;;;;;5.26;76.58;100637.80;1692505;83;21180;-73
2021/03/04 08:42:05;;;;;;;116.08;56.48;;;;;;;5.26;76.54;100631.67;1693415;84;21227;-73
2021/03/04 08:44:32;;;;;;;107.22;54.88;;;;;;;5.25;76.48;100633.47;1703111;83;21207;-72
2021/03/04 08:46:58;;;;;;;97.80;52.65;;;;;;;5.28;76.43;100633.20;1691811;84;21570;-72
2021/03/04 08:49:24;;;;;;;117.85;56.90;;;;;;;5.32;76.38;100628.02;1684847;84;21572;-72
2021/03/04 08:51:51;;;;;;;102.97;55.35;;;;;;;5.36;76.34;100628.59;1688466;84;21137;-72
2021/03/04 08:54:24;;;;;;;98.67;54.93;;;;;;;5.42;76.27;100631.55;1696937;84;21167;-73
2021/03/04 08:57:05;;;;;;;105.22;55.83;;;;;;;5.45;76.23;100632.60;1693781;84;21152;-73
2021/03/04 08:59:32;;;;;;;123.22;64.00;;;;;;;5.52;76.18;100631.11;1695927;84;21614;-72
2021/03/04 09:01:59;;;;;;;114.62;58.35;;;;;;;5.58;76.12;100624.95;1690865;84;21171;-73
2021/03/04 09:04:27;;;;;;;107.55;56.28;;;;;;;5.64;76.09;100623.09;1696973;84;21133;-73
2021/03/04 09:06:54;;;;;;;118.02;61.10;;;;;;;5.62;76.01;100623.72;1700427;84;21155;-73
2021/03/04 09:09:29;;;;;;;138.03;74.55;;;;;;;5.59;75.96;100622.19;1693962;83;21279;-73
2021/03/04 09:11:57;;;;;;;119.62;63.25;;;;;;;5.62;75.95;100622.40;1694895;84;21621;-73
2021/03/04 09:14:28;;;;;;;100.25;51.15;;;;;;;5.64;75.86;100617.80;1669927;84;21954;-73
2021/03/04 09:17:16;;;;;;;97.78;50.38;;;;;;;5.66;75.81;100621.16;1693825;83;21133;-74
2021/03/04 09:19:43;;;;;;;118.20;61.42;;;;;;;5.69;75.75;100618.25;1692971;83;21586;-73
2021/03/04 09:22:11;;;;;;;100.27;56.90;;;;;;;5.77;75.72;100625.05;1689553;83;22799;-73
2021/03/04 09:24:40;;;;;;;102.20;54.93;;;;;;;5.73;75.66;100619.66;1682563;82;21642;-74
2021/03/04 09:27:08;;;;;;;115.70;61.40;;;;;;;5.66;75.59;100623.81;1682600;83;21252;-74
2021/03/04 09:29:42;;;;;;;144.68;73.80;;;;;;;5.66;75.57;100623.81;1676774;84;21155;-74
2021/03/04 09:32:09;;;;;;;117.15;64.00;;;;;;;5.65;75.52;100625.61;1681295;84;21234;-74
2021/03/04 09:34:39;;;;;;;121.55;61.55;;;;;;;5.62;75.49;100623.72;1672048;84;21184;-74
2021/03/04 09:37:14;;;;;;;116.77;56.88;;;;;;;5.61;75.43;100622.03;1688969;84;21628;-74
2021/03/04 09:39:46;;;;;;;105.25;55.98;;;;;;;5.56;75.37;100618.97;1678047;84;21241;-74
2021/03/04 09:42:16;;;;;;;103.62;52.85;;;;;;;5.54;75.36;100625.22;1676174;84;21140;-73
2021/03/04 09:44:48;;;;;;;;;;;;;;;5.58;75.35;100615.69;1686689;84;21240;-73
2021/03/04 09:47:21;;;;;;;112.08;54.85;;;;;;;5.59;75.32;100617.38;1673412;84;20456;-74
2021/03/04 09:49:48;;;;;;;107.17;55.92;;;;;;;5.63;75.32;100622.76;1672252;84;21202;-73
2021/03/04 09:52:25;;;;;;;94.55;51.42;;;;;;;5.71;75.29;100625.55;1678774;84;21236;-74
2021/03/04 09:54:52;;;;;;;132.97;68.17;;;;;;;5.70;75.23;100630.52;1683939;84;21184;-74
2021/03/04 09:57:20;;;;;;;128.00;63.65;;;;;;;5.71;75.24;100629.52;1690509;84;21903;-73
2021/03/04 09:59:51;;;;;;;153.95;81.60;;;;;;;5.72;75.23;100627.23;1685219;84;21511;-73
2021/03/04 10:02:18;;;;;;;97.12;53.65;;;;;;;5.75;75.20;100628.29;1679983;84;21219;-74
2021/03/04 10:05:03;;;;;;;93.52;52.67;;;;;;;5.73;75.16;100631.57;1682592;84;21161;-73
2021/03/04 10:07:31;;;;;;;93.75;51.08;;;;;;;5.64;75.11;100625.73;1686938;84;21587;-73
2021/03/04 10:09:59;;;;;;;103.22;58.80;;;;;;;5.59;75.07;100630.60;1689416;84;21220;-73
2021/03/04 10:12:25;;;;;;;95.57;50.92;;;;;;;5.54;75.00;100629.19;1684654;84;21810;-73
2021/03/04 10:14:53;;;;;;;117.20;58.92;;;;;;;5.56;74.95;100622.94;1689187;83;21220;-73
2021/03/04 10:17:20;;;;;;;109.90;55.08;;;;;;;5.64;74.89;100617.80;1683844;83;21289;-73
2021/03/04 10:19:46;;;;;;;113.50;51.70;;;;;;;5.75;74.82;100620.35;1687713;84;21470;-73
2021/03/04 10:22:13;;;;;;;85.92;45.25;;;;;;;5.83;74.74;100616.56;1683287;84;22783;-74
2021/03/04 10:24:39;;;;;;;85.80;43.85;;;;;;;5.88;74.68;100619.17;1687564;84;21192;-74
2021/03/04 10:27:06;;;;;;;81.57;40.98;;;;;;;5.91;74.62;100616.25;1655073;84;21161;-73
2021/03/04 10:29:32;;;;;;;88.55;47.30;;;;;;;5.90;74.57;100619.90;1691037;84;21634;-73
2021/03/04 10:31:59;;;;;;;94.58;49.42;;;;;;;5.88;74.50;100627.59;1684151;84;21181;-73
2021/03/04 10:34:25;;;;;;;89.45;48.25;;;;;;;5.91;74.44;100620.73;1688866;84;21209;-73
2021/03/04 10:36:52;;;;;;;85.22;46.00;;;;;;;5.96;74.36;100623.32;1687361;84;21222;-74
2021/03/04 10:39:20;;;;;;;99.92;50.10;;;;;;;5.99;74.27;100619.55;1686463;84;21188;-73
2021/03/04 10:41:47;;;;;;;86.63;46.98;;;;;;;6.02;74.19;100616.63;1683331;84;21612;-74
2021/03/04 10:44:13;;;;;;;98.03;46.88;;;;;;;6.06;74.09;100622.02;1684646;84;21219;-73
2021/03/04 10:46:40;;;;;;;90.15;52.03;;;;;;;6.07;74.00;100630.31;1683585;84;21230;-73
2021/03/04 10:49:07;;;;;;;96.37;47.73;;;;;;;6.10;73.92;100623.91;1687494;84;21198;-74
2021/03/04 10:51:34;;;;;;;94.37;45.92;;;;;;;6.13;73.83;100618.33;1683507;84;21553;-75
2021/03/04 10:54:00;;;;;;;93.52;47.50;;;;;;;6.12;73.78;100620.66;1686498;84;21518;-74
2021/03/04 10:56:26;;;;;;;96.67;47.55;;;;;;;6.11;73.69;100618.48;1682954;84;21180;-73
2021/03/04 10:58:53;;;;;;;85.00;44.38;;;;;;;6.13;73.61;100617.84;1685242;84;22023;-74
2021/03/04 11:01:20;;;;;;;77.32;43.13;;;;;;;6.18;73.52;100618.30;1687844;84;21136;-74
2021/03/04 11:03:47;;;;;;;82.70;42.38;;;;;;;6.24;73.45;100617.73;1681055;84;21651;-74
2021/03/04 11:06:13;;;;;;;92.00;48.55;;;;;;;6.29;73.37;100617.34;1683901;84;21188;-74
2021/03/04 11:08:40;;;;;;;90.87;47.62;;;;;;;6.38;73.27;100620.47;1682917;83;21260;-74
2021/03/04 11:11:06;;;;;;;75.70;41.80;;;;;;;6.39;73.22;100613.73;1680225;84;21246;-74
2021/03/04 11:13:32;;;;;;;81.05;43.40;;;;;;;6.43;73.14;100620.42;1681109;84;21184;-74
2021/03/04 11:15:58;;;;;;;90.95;48.10;;;;;;;6.41;73.04;100622.36;1684563;84;21580;-74
2021/03/04 11:18:25;;;;;;;81.47;43.40;;;;;;;6.35;72.94;100617.63;1686395;84;21095;-73
2021/03/04 11:20:51;;;;;;;85.35;44.60;;;;;;;6.38;72.87;100617.34;1679488;84;21139;-74
2021/03/04 11:23:17;;;;;;;85.25;45.70;;;;;;;6.40;72.78;100611.41;1686419;84;21235;-74
2021/03/04 11:25:44;;;;;;;138.52;66.02;;;;;;;6.48;72.68;100607.59;1695573;84;21154;-74